createdAt,value
2022-08-18T00:01:50.295Z,100.00
2022-08-18T00:04:34.813Z,100.00
2022-08-18T00:07:10.878Z,99.93
2022-08-18T00:09:39.583Z,100.00
2022-08-18T00:12:20.799Z,100.00
2022-08-18T00:14:48.597Z,100.00
2022-08-18T00:17:16.347Z,100.00
2022-08-18T00:19:46.924Z,100.00
2022-08-18T00:22:19.990Z,100.00
2022-08-18T00:24:55.520Z,100.00
2022-08-18T00:27:28.948Z,100.00
2022-08-18T00:29:58.711Z,100.00
2022-08-18T00:32:34.647Z,100.00
2022-08-18T00:35:30.048Z,100.00
2022-08-18T00:37:59.878Z,100.00
2022-08-18T00:40:34.477Z,100.00
2022-08-18T00:43:06.047Z,100.00
2022-08-18T00:45:36.726Z,100.00
2022-08-18T00:48:04.843Z,100.00
2022-08-18T00:51:00.662Z,100.00
2022-08-18T00:53:45.949Z,100.00
2022-08-18T00:56:26.227Z,100.00
2022-08-18T00:58:58.465Z,100.00
2022-08-18T01:01:27.534Z,100.00
2022-08-18T01:04:00.492Z,100.00
2022-08-18T01:06:32.520Z,100.00
2022-08-18T01:09:00.162Z,100.00
2022-08-18T01:11:29.563Z,100.00
2022-08-18T01:13:58.342Z,100.00
2022-08-18T01:16:57.682Z,100.00
2022-08-18T01:19:44.055Z,100.00
2022-08-18T01:22:22.963Z,100.00
2022-08-18T01:25:10.226Z,100.00
2022-08-18T01:27:37.951Z,100.00
2022-08-18T01:30:10.464Z,100.00
2022-08-18T01:32:38.731Z,100.00
2022-08-18T01:35:11.644Z,100.00
2022-08-18T01:37:41.415Z,100.00
2022-08-18T01:41:17.242Z,100.00
2022-08-18T01:42:57.767Z,100.00
2022-08-18T01:45:25.429Z,100.00
2022-08-18T01:47:53.144Z,100.00
2022-08-18T01:50:21.158Z,100.00
2022-08-18T01:52:50.212Z,100.00
2022-08-18T01:55:18.327Z,100.00
2022-08-18T01:57:46.920Z,100.00
2022-08-18T02:00:16.118Z,100.00
2022-08-18T02:02:44.040Z,100.00
2022-08-18T02:05:24.674Z,100.00
2022-08-18T02:07:55.913Z,100.00
2022-08-18T02:10:23.777Z,100.00
2022-08-18T02:12:51.983Z,100.00
2022-08-18T02:15:19.720Z,100.00
2022-08-18T02:17:47.672Z,100.00
2022-08-18T02:20:16.913Z,100.00
2022-08-18T02:22:46.925Z,100.00
2022-08-18T02:25:14.736Z,100.00
2022-08-18T02:27:43.081Z,100.00
2022-08-18T02:30:12.838Z,100.00
2022-08-18T02:32:40.584Z,100.00
2022-08-18T02:35:11.534Z,100.00
2022-08-18T02:37:42.972Z,100.00
2022-08-18T02:40:15.154Z,100.00
2022-08-18T02:42:45.065Z,100.00
2022-08-18T02:45:13.666Z,100.00
2022-08-18T02:47:42.979Z,100.00
2022-08-18T02:50:13.371Z,100.00
2022-08-18T02:52:41.533Z,100.00
2022-08-18T02:55:10.007Z,100.00
2022-08-18T02:57:42.461Z,100.00
2022-08-18T03:00:13.713Z,100.00
2022-08-18T03:02:42.327Z,100.00
2022-08-18T03:05:14.827Z,100.00
2022-08-18T03:07:43.278Z,100.00
2022-08-18T03:10:31.829Z,100.00
2022-08-18T03:12:59.231Z,100.00
2022-08-18T03:15:26.920Z,100.00
2022-08-18T03:17:56.370Z,100.00
2022-08-18T03:20:30.396Z,100.00
2022-08-18T03:22:59.766Z,100.00
2022-08-18T03:25:33.671Z,100.00
2022-08-18T03:30:30.304Z,99.82
2022-08-18T03:32:58.479Z,98.92
2022-08-18T03:35:26.131Z,94.42
2022-08-18T03:37:56.028Z,89.35
2022-08-18T03:40:23.800Z,85.14
2022-08-18T03:42:51.391Z,81.95
2022-08-18T03:45:19.753Z,79.38
2022-08-18T03:47:47.460Z,77.04
2022-08-18T03:50:15.069Z,75.29
2022-08-18T03:52:42.630Z,73.43
2022-08-18T03:55:10.266Z,72.41
2022-08-18T03:57:39.319Z,71.48
2022-08-18T04:00:09.829Z,70.04
2022-08-18T04:02:37.410Z,68.60
2022-08-18T04:05:08.441Z,69.09
2022-08-18T04:07:37.952Z,68.07
2022-08-18T04:10:06.054Z,67.37
2022-08-18T04:12:43.452Z,67.28
2022-08-18T04:15:11.944Z,66.66
2022-08-18T04:18:03.435Z,65.96
2022-08-18T04:20:27.333Z,65.05
2022-08-18T04:22:55.848Z,64.18
2022-08-18T04:25:23.594Z,62.82
2022-08-18T04:27:51.325Z,62.28
2022-08-18T04:30:19.096Z,61.43
2022-08-18T04:32:46.648Z,63.16
2022-08-18T04:35:14.781Z,61.69
2022-08-18T04:37:44.055Z,61.44
2022-08-18T04:40:13.559Z,60.48
2022-08-18T04:42:43.517Z,60.83
2022-08-18T04:45:11.229Z,62.18
2022-08-18T04:47:41.769Z,64.41
2022-08-18T04:50:10.502Z,63.23
2022-08-18T04:52:56.920Z,61.26
2022-08-18T04:55:24.601Z,59.90
2022-08-18T04:57:52.662Z,58.69
2022-08-18T05:00:20.617Z,58.65
2022-08-18T05:02:48.943Z,58.32
2022-08-18T05:05:16.739Z,58.01
2022-08-18T05:07:46.035Z,56.24
2022-08-18T05:10:17.934Z,56.68
2022-08-18T05:12:47.725Z,55.46
2022-08-18T05:15:15.265Z,54.24
2022-08-18T05:17:50.503Z,53.87
2022-08-18T05:20:19.336Z,53.37
2022-08-18T05:22:47.505Z,53.43
2022-08-18T05:25:16.316Z,53.95
2022-08-18T05:27:45.244Z,52.30
2022-08-18T05:30:15.476Z,52.60
2022-08-18T05:32:48.147Z,52.21
2022-08-18T05:35:25.886Z,51.60
2022-08-18T05:37:57.367Z,51.92
2022-08-18T05:40:25.208Z,52.98
2022-08-18T05:42:54.041Z,53.53
2022-08-18T05:45:21.631Z,54.79
2022-08-18T05:47:49.463Z,56.90
2022-08-18T05:50:20.071Z,56.80
2022-08-18T05:53:13.226Z,56.27
2022-08-18T05:56:05.521Z,58.51
2022-08-18T05:58:42.271Z,60.24
2022-08-18T06:01:19.138Z,60.62
2022-08-18T06:03:50.609Z,61.55
2022-08-18T06:06:29.915Z,60.67
2022-08-18T06:09:18.171Z,60.25
2022-08-18T06:11:45.928Z,60.47
2022-08-18T06:14:14.331Z,60.45
2022-08-18T06:16:42.375Z,59.93
2022-08-18T06:19:46.768Z,60.22
2022-08-18T06:22:29.836Z,59.51
2022-08-18T06:25:26.683Z,59.67
2022-08-18T06:28:14.826Z,60.04
2022-08-18T06:30:42.866Z,61.21
2022-08-18T06:33:35.212Z,60.44
2022-08-18T06:36:08.957Z,61.70
2022-08-18T06:38:46.307Z,63.27
2022-08-18T06:41:41.964Z,63.43
2022-08-18T06:44:13.135Z,62.11
2022-08-18T06:46:53.864Z,62.08
2022-08-18T06:49:24.681Z,62.41
2022-08-18T06:51:52.399Z,62.26
2022-08-18T06:54:19.831Z,60.80
2022-08-18T06:56:49.676Z,60.27
2022-08-18T06:59:19.084Z,60.86
2022-08-18T07:01:47.797Z,60.50
2022-08-18T07:04:38.478Z,60.07
2022-08-18T07:07:21.033Z,60.37
2022-08-18T07:09:49.539Z,61.64
2022-08-18T07:12:30.499Z,59.69
2022-08-18T07:15:01.982Z,60.23
2022-08-18T07:17:42.290Z,60.07
2022-08-18T07:20:18.803Z,62.14
2022-08-18T07:23:01.212Z,60.86
2022-08-18T07:25:32.199Z,61.24
2022-08-18T07:28:02.040Z,61.13
2022-08-18T07:30:37.537Z,57.71
2022-08-18T07:33:08.041Z,56.74
2022-08-18T07:35:39.369Z,56.61
2022-08-18T07:38:40.885Z,56.74
2022-08-18T07:41:16.183Z,54.79
2022-08-18T07:43:51.984Z,55.87
2022-08-18T07:46:45.850Z,54.99
2022-08-18T07:49:24.937Z,54.36
2022-08-18T07:52:03.939Z,53.71
2022-08-18T07:54:50.481Z,51.97
2022-08-18T07:57:24.772Z,53.64
2022-08-18T08:00:20.689Z,52.36
2022-08-18T08:03:01.568Z,51.33
2022-08-18T08:05:48.684Z,51.58
2022-08-18T08:08:25.477Z,50.55
2022-08-18T08:10:56.318Z,50.33
2022-08-18T08:13:53.405Z,50.13
2022-08-18T08:16:48.550Z,48.53
2022-08-18T08:20:01.273Z,48.79
2022-08-18T08:22:33.468Z,49.48
2022-08-18T08:25:28.337Z,48.10
2022-08-18T08:28:07.508Z,50.31
2022-08-18T08:30:45.882Z,50.45
2022-08-18T08:33:44.413Z,50.18
2022-08-18T08:36:17.570Z,51.30
2022-08-18T08:38:49.736Z,50.48
2022-08-18T08:41:26.756Z,49.52
2022-08-18T08:44:09.539Z,49.20
2022-08-18T08:47:23.420Z,47.25
2022-08-18T08:50:00.603Z,49.16
2022-08-18T08:52:44.738Z,50.58
2022-08-18T08:55:19.417Z,51.15
2022-08-18T08:57:54.284Z,52.11
2022-08-18T09:00:21.997Z,51.20
2022-08-18T09:03:29.888Z,50.17
2022-08-18T09:06:17.204Z,51.59
2022-08-18T09:09:08.744Z,49.58
2022-08-18T09:11:50.292Z,48.76
2022-08-18T09:14:27.214Z,48.08
2022-08-18T09:17:16.180Z,45.90
2022-08-18T09:20:19.136Z,46.66
2022-08-18T09:22:55.046Z,46.98
2022-08-18T09:25:37.950Z,48.25
2022-08-18T09:28:15.079Z,51.36
2022-08-18T09:31:08.833Z,49.56
2022-08-18T09:33:40.805Z,45.68
2022-08-18T09:36:51.762Z,43.51
2022-08-18T09:45:34.043Z,44.64
2022-08-18T09:48:11.554Z,42.92
2022-08-18T09:50:37.043Z,43.45
2022-08-18T09:50:56.020Z,43.39
2022-08-18T09:53:54.412Z,43.36
2022-08-18T09:56:53.585Z,40.80
2022-08-18T09:59:35.209Z,40.06
2022-08-18T10:02:22.614Z,41.88
2022-08-18T10:05:21.276Z,40.68
2022-08-18T10:08:21.542Z,40.30
2022-08-18T10:11:16.752Z,39.18
2022-08-18T10:14:33.645Z,41.16
2022-08-18T10:17:23.965Z,39.16
2022-08-18T10:20:26.237Z,39.20
2022-08-18T10:23:01.818Z,39.12
2022-08-18T10:25:35.328Z,38.59
2022-08-18T10:28:05.886Z,42.91
2022-08-18T10:30:52.684Z,41.97
2022-08-18T10:33:57.545Z,38.10
2022-08-18T10:36:38.589Z,40.43
2022-08-18T10:39:11.021Z,39.53
2022-08-18T10:41:57.509Z,38.97
2022-08-18T10:44:29.581Z,40.40
2022-08-18T10:46:59.600Z,40.47
2022-08-18T10:49:29.193Z,39.35
2022-08-18T10:51:59.230Z,38.12
2022-08-18T10:54:50.791Z,34.81
2022-08-18T10:57:45.843Z,36.29
2022-08-18T11:00:18.751Z,38.58
2022-08-18T11:03:42.288Z,37.50
2022-08-18T11:06:18.041Z,36.99
2022-08-18T11:08:54.866Z,37.90
2022-08-18T11:11:53.055Z,36.66
2022-08-18T11:14:49.970Z,38.40
2022-08-18T11:17:54.966Z,36.66
2022-08-18T11:20:24.461Z,36.92
2022-08-18T11:23:00.467Z,37.71
2022-08-18T11:25:34.117Z,38.31
2022-08-18T11:28:02.433Z,38.56
2022-08-18T11:30:37.878Z,38.69
2022-08-18T11:33:08.690Z,40.84
2022-08-18T11:35:58.231Z,37.99
2022-08-18T11:38:29.621Z,38.32
2022-08-18T11:41:17.788Z,37.43
2022-08-18T11:43:48.297Z,37.43
2022-08-18T11:46:29.368Z,37.55
2022-08-18T11:49:00.533Z,38.48
2022-08-18T11:51:30.649Z,36.44
2022-08-18T11:54:05.222Z,35.58
2022-08-18T11:56:38.456Z,36.55
2022-08-18T11:59:08.484Z,35.98
2022-08-18T12:01:51.213Z,35.06
2022-08-18T12:04:21.279Z,38.19
2022-08-18T12:07:00.815Z,37.92
2022-08-18T12:12:32.564Z,41.04
2022-08-18T12:15:25.064Z,41.26
2022-08-18T12:17:57.323Z,44.70
2022-08-18T12:20:25.926Z,46.43
2022-08-18T12:22:54.867Z,47.47
2022-08-18T12:25:24.556Z,48.16
2022-08-18T12:27:54.871Z,48.76
2022-08-18T12:30:23.346Z,49.12
2022-08-18T12:33:01.002Z,49.80
2022-08-18T12:35:42.312Z,49.64
2022-08-18T12:40:59.118Z,49.28
2022-08-18T12:43:27.880Z,49.34
2022-08-18T12:46:00.621Z,50.35
2022-08-18T12:48:29.361Z,50.88
2022-08-18T12:50:58.405Z,51.51
2022-08-18T12:53:38.357Z,51.92
2022-08-18T12:56:27.363Z,53.30
2022-08-18T12:58:55.986Z,54.98
2022-08-18T13:01:25.439Z,55.20
2022-08-18T13:04:11.673Z,53.99
2022-08-18T13:07:00.527Z,53.84
2022-08-18T13:09:34.779Z,55.07
2022-08-18T13:12:17.501Z,54.53
2022-08-18T13:14:46.679Z,53.97
2022-08-18T13:17:28.996Z,52.95
2022-08-18T13:20:11.587Z,52.33
2022-08-18T13:22:42.009Z,53.03
2022-08-18T13:25:12.183Z,53.03
2022-08-18T13:27:45.699Z,53.03
2022-08-18T13:30:29.157Z,52.30
2022-08-18T13:33:02.518Z,51.75
2022-08-18T13:35:44.213Z,51.44
2022-08-18T13:38:20.673Z,50.94
2022-08-18T13:40:50.703Z,51.65
2022-08-18T13:43:23.342Z,52.08
2022-08-18T13:45:52.961Z,52.30
2022-08-18T13:48:25.826Z,52.48
2022-08-18T13:50:55.743Z,52.54
2022-08-18T13:53:24.832Z,53.43
2022-08-18T13:56:02.161Z,53.31
2022-08-18T13:58:32.417Z,53.63
2022-08-18T14:01:41.990Z,53.47
2022-08-18T14:03:52.817Z,53.94
2022-08-18T14:06:23.703Z,55.12
2022-08-18T14:08:52.505Z,55.04
2022-08-18T14:11:32.886Z,55.51
2022-08-18T14:14:02.317Z,56.36
2022-08-18T14:16:32.350Z,55.59
2022-08-18T14:19:22.587Z,54.98
2022-08-18T14:22:12.562Z,55.68
2022-08-18T14:25:00.423Z,54.90
2022-08-18T14:27:35.627Z,56.55
2022-08-18T14:30:09.171Z,53.87
2022-08-18T14:32:59.619Z,54.12
2022-08-18T14:36:04.495Z,53.33
2022-08-18T14:38:16.228Z,54.00
2022-08-18T14:40:44.460Z,53.89
2022-08-18T14:43:14.196Z,53.42
2022-08-18T14:45:48.711Z,53.55
2022-08-18T14:48:18.713Z,52.83
2022-08-18T14:50:49.364Z,51.60
2022-08-18T14:53:20.473Z,50.76
2022-08-18T14:55:52.566Z,49.82
2022-08-18T14:58:26.880Z,48.90
2022-08-18T15:01:00.034Z,48.51
2022-08-18T15:03:31.562Z,47.15
2022-08-18T15:06:04.645Z,48.16
2022-08-18T15:08:36.007Z,48.65
2022-08-18T15:11:11.813Z,49.25
2022-08-18T15:13:45.236Z,47.96
2022-08-18T15:16:20.589Z,48.32
2022-08-18T15:18:56.129Z,48.89
2022-08-18T15:21:42.967Z,49.23
2022-08-18T15:24:29.306Z,49.82
2022-08-18T15:27:05.600Z,50.37
2022-08-18T15:29:34.915Z,50.74
2022-08-18T15:32:06.178Z,50.80
2022-08-18T15:34:47.194Z,51.37
2022-08-18T15:37:22.308Z,52.68
2022-08-18T15:40:21.731Z,53.97
2022-08-18T15:43:01.758Z,55.94
2022-08-18T15:45:35.619Z,55.82
2022-08-18T15:48:10.844Z,56.82
2022-08-18T15:50:41.791Z,57.52
2022-08-18T15:53:09.568Z,58.30
2022-08-18T15:55:39.283Z,58.26
2022-08-18T15:58:11.179Z,62.31
2022-08-18T16:00:46.073Z,63.91
2022-08-18T16:03:16.917Z,64.86
2022-08-18T16:05:53.083Z,61.95
2022-08-18T16:08:23.696Z,61.48
2022-08-18T16:10:54.183Z,62.74
2022-08-18T16:13:22.707Z,63.25
2022-08-18T16:15:50.724Z,62.83
2022-08-18T16:18:19.324Z,63.31
2022-08-18T16:20:47.249Z,63.67
2022-08-18T16:23:15.720Z,64.00
2022-08-18T16:25:43.729Z,65.13
2022-08-18T16:28:13.489Z,65.38
2022-08-18T16:30:41.667Z,65.42
2022-08-18T16:33:09.693Z,66.05
2022-08-18T16:35:37.651Z,67.01
2022-08-18T16:38:09.080Z,66.40
2022-08-18T16:40:36.989Z,67.43
2022-08-18T16:43:06.872Z,67.60
2022-08-18T16:45:36.995Z,67.73
2022-08-18T16:48:06.617Z,68.84
2022-08-18T16:50:35.715Z,70.27
2022-08-18T16:53:04.875Z,73.29
2022-08-18T16:55:32.428Z,74.06
2022-08-18T16:58:18.781Z,73.35
2022-08-18T17:01:05.076Z,75.07
2022-08-18T17:03:51.888Z,75.31
2022-08-18T17:06:19.672Z,75.67
2022-08-18T17:08:47.307Z,74.63
2022-08-18T17:11:17.369Z,73.86
2022-08-18T17:13:45.813Z,73.10
2022-08-18T17:16:13.697Z,73.21
2022-08-18T17:18:41.397Z,72.48
2022-08-18T17:21:10.736Z,71.88
2022-08-18T17:23:39.213Z,71.15
2022-08-18T17:26:08.348Z,70.48
2022-08-18T17:28:50.238Z,69.23
2022-08-18T17:31:20.793Z,68.50
2022-08-18T17:33:49.124Z,69.59
2022-08-18T17:36:23.528Z,69.06
2022-08-18T17:38:54.501Z,68.64
2022-08-18T17:41:23.774Z,68.20
2022-08-18T17:43:52.455Z,68.77
2022-08-18T17:46:29.338Z,70.66
2022-08-18T17:49:06.432Z,72.21
2022-08-18T17:51:46.940Z,72.09
2022-08-18T17:54:23.509Z,71.09
2022-08-18T17:56:55.469Z,70.07
2022-08-18T17:59:45.479Z,69.77
2022-08-18T18:02:29.163Z,69.54
2022-08-18T18:05:02.733Z,69.71
2022-08-18T18:07:56.825Z,70.21
2022-08-18T18:10:37.736Z,69.95
2022-08-18T18:13:12.329Z,70.28
2022-08-18T18:15:46.755Z,71.77
2022-08-18T18:18:21.843Z,73.09
2022-08-18T18:21:14.699Z,74.42
2022-08-18T18:23:46.052Z,76.04
2022-08-18T18:26:48.735Z,76.68
2022-08-18T18:29:19.491Z,76.62
2022-08-18T18:32:27.652Z,77.58
2022-08-18T18:35:27.444Z,77.18
2022-08-18T18:38:00.735Z,78.27
2022-08-18T18:40:39.452Z,78.76
2022-08-18T18:43:29.007Z,78.97
2022-08-18T18:46:18.660Z,80.66
2022-08-18T18:48:52.208Z,80.12
2022-08-18T18:51:33.948Z,81.38
2022-08-18T18:54:33.106Z,80.80
2022-08-18T18:57:00.739Z,81.22
2022-08-18T18:59:49.198Z,82.11
2022-08-18T19:02:46.247Z,82.45
2022-08-18T19:05:27.176Z,81.52
2022-08-18T19:08:15.940Z,83.54
2022-08-18T19:11:11.754Z,82.65
2022-08-18T19:13:42.254Z,81.54
2022-08-18T19:16:23.698Z,80.33
2022-08-18T19:19:38.108Z,79.60
2022-08-18T19:22:03.122Z,78.86
2022-08-18T19:24:41.363Z,79.17
2022-08-18T19:27:23.209Z,79.57
2022-08-18T19:29:52.480Z,80.10
2022-08-18T19:32:27.533Z,80.17
2022-08-18T19:34:55.954Z,80.59
2022-08-18T19:37:33.015Z,79.53
2022-08-18T19:40:17.516Z,80.04
2022-08-18T19:43:06.722Z,81.14
2022-08-18T19:45:58.033Z,81.27
2022-08-18T19:48:34.970Z,81.22
2022-08-18T19:51:10.347Z,81.10
2022-08-18T19:53:53.767Z,82.04
2022-08-18T19:56:32.896Z,82.76
2022-08-18T19:59:26.809Z,84.08
2022-08-18T20:02:21.372Z,84.39
2022-08-18T20:05:04.026Z,84.48
2022-08-18T20:07:55.261Z,84.40
2022-08-18T20:10:31.196Z,84.67
2022-08-18T20:13:09.250Z,85.13
2022-08-18T20:15:37.077Z,85.22
2022-08-18T20:18:18.231Z,87.24
2022-08-18T20:20:45.935Z,86.41
2022-08-18T20:23:34.162Z,87.57
2022-08-18T20:26:01.855Z,88.76
2022-08-18T20:28:39.085Z,88.35
2022-08-18T20:31:13.096Z,88.20
2022-08-18T20:34:04.254Z,88.65
2022-08-18T20:36:36.734Z,88.39
2022-08-18T20:39:32.348Z,89.37
2022-08-18T20:42:04.434Z,88.85
2022-08-18T20:44:44.247Z,90.04
2022-08-18T20:47:46.130Z,89.12
2022-08-18T20:50:38.332Z,90.85
2022-08-18T20:53:50.387Z,92.00
2022-08-18T20:56:31.954Z,91.17
2022-08-18T20:59:08.664Z,91.54
2022-08-18T21:01:37.339Z,91.55
2022-08-18T21:04:06.910Z,91.58
2022-08-18T21:06:42.169Z,91.56
2022-08-18T21:09:10.608Z,91.84
2022-08-18T21:11:44.236Z,92.15
2022-08-18T21:14:13.134Z,91.76
2022-08-18T21:16:45.205Z,91.66
2022-08-18T21:19:27.683Z,92.18
2022-08-18T21:22:04.150Z,91.84
2022-08-18T21:24:39.009Z,91.47
2022-08-18T21:27:07.689Z,91.50
2022-08-18T21:29:42.247Z,92.96
2022-08-18T21:32:20.133Z,92.53
2022-08-18T21:37:17.339Z,92.05
2022-08-18T21:39:52.979Z,92.52
2022-08-18T21:42:41.361Z,93.53
2022-08-18T21:45:19.423Z,93.17
2022-08-18T21:47:56.634Z,92.85
2022-08-18T21:50:29.252Z,93.56
2022-08-18T21:53:01.319Z,94.46
2022-08-18T21:55:40.737Z,95.04
2022-08-18T21:58:18.200Z,94.65
2022-08-18T22:01:04.949Z,94.22
2022-08-18T22:03:32.780Z,94.76
2022-08-18T22:06:13.797Z,94.51
2022-08-18T22:08:49.744Z,94.09
2022-08-18T22:11:59.580Z,93.94
2022-08-18T22:14:53.529Z,94.15
2022-08-18T22:17:29.572Z,94.82
2022-08-18T22:20:35.524Z,96.14
2022-08-18T22:23:24.893Z,96.93
2022-08-18T22:25:52.691Z,97.57
2022-08-18T22:28:24.318Z,96.77
2022-08-18T22:30:55.066Z,96.54
2022-08-18T22:33:23.576Z,96.25
2022-08-18T22:35:57.459Z,96.78
2022-08-18T22:38:25.472Z,96.51
2022-08-18T22:40:53.077Z,95.62
2022-08-18T22:43:20.665Z,95.04
2022-08-18T22:45:48.261Z,95.47
2022-08-18T22:48:16.638Z,96.80
2022-08-18T22:50:46.195Z,96.26
2022-08-18T22:53:14.369Z,96.35
2022-08-18T22:55:41.936Z,95.99
2022-08-18T22:58:09.645Z,95.87
2022-08-18T23:00:39.724Z,95.65
2022-08-18T23:03:09.839Z,95.65
2022-08-18T23:05:37.539Z,95.86
2022-08-18T23:08:05.833Z,96.64
2022-08-18T23:10:33.542Z,95.53
2022-08-18T23:13:04.455Z,97.20
2022-08-18T23:15:47.623Z,97.31
2022-08-18T23:18:19.955Z,97.17
2022-08-18T23:21:00.247Z,96.80
2022-08-18T23:23:28.832Z,97.66
2022-08-18T23:25:56.558Z,97.41
2022-08-18T23:28:27.260Z,98.69
2022-08-18T23:30:58.104Z,98.17
2022-08-18T23:33:26.146Z,98.13
2022-08-18T23:35:53.849Z,99.17
2022-08-18T23:38:21.598Z,98.39
2022-08-18T23:40:59.093Z,97.77
2022-08-18T23:43:26.680Z,97.40
2022-08-18T23:45:54.249Z,97.20
2022-08-18T23:48:22.423Z,97.36
2022-08-18T23:50:50.128Z,97.26
2022-08-18T23:53:18.986Z,98.60
2022-08-18T23:55:46.656Z,99.16
2022-08-18T23:58:14.285Z,99.21
